createdAt,value
2024-01-17T00:01:50.249Z,98648.77
2024-01-17T00:03:52.139Z,98646.21
2024-01-17T00:05:53.957Z,98645.41
2024-01-17T00:07:55.882Z,98643.11
2024-01-17T00:09:57.698Z,98642.16
2024-01-17T00:12:03.393Z,98639.98
2024-01-17T00:14:05.258Z,98637.27
2024-01-17T00:16:07.052Z,98629.84
2024-01-17T00:18:08.938Z,98633.95
2024-01-17T00:20:11.237Z,98627.87
2024-01-17T00:22:13.554Z,98624.49
2024-01-17T00:24:15.915Z,98624.13
2024-01-17T00:26:17.777Z,98621.18
2024-01-17T00:28:19.541Z,98618.59
2024-01-17T00:30:21.325Z,98618.58
2024-01-17T00:32:23.239Z,98612.77
2024-01-17T00:34:25.013Z,98613.69
2024-01-17T00:36:27.127Z,98610.80
2024-01-17T00:38:29.119Z,98613.02
2024-01-17T00:40:32.363Z,98613.34
2024-01-17T00:42:34.136Z,98612.97
2024-01-17T00:44:39.724Z,98609.88
2024-01-17T00:46:42.031Z,98614.73
2024-01-17T00:48:43.996Z,98612.87
2024-01-17T00:50:46.337Z,98614.31
2024-01-17T00:52:48.190Z,98619.21
2024-01-17T00:54:49.884Z,98621.02
2024-01-17T00:56:51.490Z,98623.67
2024-01-17T00:58:53.005Z,98625.10
2024-01-17T01:00:55.106Z,98623.85
2024-01-17T01:02:56.850Z,98625.19
2024-01-17T01:04:58.549Z,98621.55
2024-01-17T01:07:00.117Z,98619.00
2024-01-17T01:09:01.932Z,98614.54
2024-01-17T01:11:04.050Z,98615.70
2024-01-17T01:13:05.764Z,98618.83
2024-01-17T01:15:08.029Z,98619.63
2024-01-17T01:17:09.805Z,98612.89
2024-01-17T01:19:11.695Z,98605.13
2024-01-17T01:21:13.618Z,98604.12
2024-01-17T01:23:15.170Z,98598.17
2024-01-17T01:25:16.829Z,98594.09
2024-01-17T01:27:18.447Z,98587.97
2024-01-17T01:29:20.136Z,98582.23
2024-01-17T01:31:21.781Z,98582.70
2024-01-17T01:33:23.983Z,98586.99
2024-01-17T01:35:25.753Z,98588.38
2024-01-17T01:37:27.458Z,98589.26
2024-01-17T01:39:29.831Z,98593.02
2024-01-17T01:41:31.416Z,98591.49
2024-01-17T01:43:32.927Z,98595.55
2024-01-17T01:45:34.609Z,98595.88
2024-01-17T01:47:37.126Z,98593.96
2024-01-17T01:49:38.963Z,98591.66
2024-01-17T01:51:45.420Z,98587.23
2024-01-17T01:53:50.758Z,98580.98
2024-01-17T01:55:54.435Z,98579.83
2024-01-17T01:57:55.995Z,98580.26
2024-01-17T01:59:58.759Z,98581.89
2024-01-17T02:02:00.802Z,98583.63
2024-01-17T02:04:03.633Z,98580.12
2024-01-17T02:06:05.471Z,98576.54
2024-01-17T02:08:07.703Z,98572.09
2024-01-17T02:10:09.904Z,98573.58
2024-01-17T02:12:12.286Z,98567.58
2024-01-17T02:14:14.777Z,98567.16
2024-01-17T02:16:16.693Z,98565.52
2024-01-17T02:18:18.433Z,98568.45
2024-01-17T02:20:20.140Z,98566.39
2024-01-17T02:22:21.829Z,98561.45
2024-01-17T02:24:26.173Z,98558.92
2024-01-17T02:26:27.713Z,98560.36
2024-01-17T02:28:31.533Z,98557.32
2024-01-17T02:30:33.266Z,98556.98
2024-01-17T02:32:38.389Z,98557.52
2024-01-17T02:34:40.457Z,98559.02
2024-01-17T02:36:42.095Z,98564.83
2024-01-17T02:38:43.685Z,98560.44
2024-01-17T02:40:45.786Z,98559.59
2024-01-17T02:42:48.647Z,98559.90
2024-01-17T02:44:52.256Z,98556.95
2024-01-17T02:46:53.871Z,98550.27
2024-01-17T02:48:55.762Z,98546.77
2024-01-17T02:50:57.515Z,98547.56
2024-01-17T02:52:59.151Z,98543.51
2024-01-17T02:55:00.797Z,98533.09
2024-01-17T02:57:02.581Z,98533.45
2024-01-17T02:59:04.182Z,98527.83
2024-01-17T03:01:05.757Z,98524.61
2024-01-17T03:03:07.492Z,98521.09
2024-01-17T03:05:09.932Z,98515.30
2024-01-17T03:07:11.685Z,98510.98
2024-01-17T03:09:13.328Z,98504.16
2024-01-17T03:11:14.911Z,98507.63
2024-01-17T03:13:16.661Z,98503.81
2024-01-17T03:15:18.263Z,98508.55
2024-01-17T03:17:19.881Z,98508.66
2024-01-17T03:19:21.693Z,98503.63
2024-01-17T03:21:23.681Z,98505.83
2024-01-17T03:23:25.486Z,98505.84
2024-01-17T03:25:27.433Z,98507.88
2024-01-17T03:27:29.296Z,98509.45
2024-01-17T03:29:31.272Z,98508.85
2024-01-17T03:31:32.882Z,98512.75
2024-01-17T03:33:34.952Z,98509.90
2024-01-17T03:35:36.856Z,98510.44
2024-01-17T03:37:38.473Z,98507.77
2024-01-17T03:39:45.696Z,98508.02
2024-01-17T03:41:47.349Z,98512.42
2024-01-17T03:43:49.432Z,98502.78
2024-01-17T03:45:52.702Z,98501.42
2024-01-17T03:47:54.454Z,98494.98
2024-01-17T03:49:56.291Z,98494.48
2024-01-17T03:51:58.114Z,98494.80
2024-01-17T03:53:59.940Z,98497.17
2024-01-17T03:56:01.746Z,98496.62
2024-01-17T03:58:03.449Z,98499.48
2024-01-17T04:00:06.013Z,98493.30
2024-01-17T04:02:07.814Z,98493.42
2024-01-17T04:04:09.667Z,98495.77
2024-01-17T04:06:11.305Z,98497.80
2024-01-17T04:08:13.075Z,98500.95
2024-01-17T04:10:14.686Z,98499.33
2024-01-17T04:12:16.404Z,98498.16
2024-01-17T04:14:17.966Z,98497.40
2024-01-17T04:16:19.686Z,98499.20
2024-01-17T04:18:21.419Z,98492.85
2024-01-17T04:20:23.197Z,98493.10
2024-01-17T04:22:24.746Z,98492.38
2024-01-17T04:24:26.552Z,98494.85
2024-01-17T04:26:28.383Z,98493.47
2024-01-17T04:28:30.108Z,98489.02
2024-01-17T04:30:31.614Z,98487.38
2024-01-17T04:32:36.820Z,98480.64
2024-01-17T04:34:41.674Z,98475.64
2024-01-17T04:36:43.296Z,98476.77
2024-01-17T04:38:45.543Z,98481.64
2024-01-17T04:40:47.127Z,98481.66
2024-01-17T04:42:50.332Z,98472.55
2024-01-17T04:44:52.052Z,98463.76
2024-01-17T04:46:53.672Z,98463.54
2024-01-17T04:48:55.463Z,98461.41
2024-01-17T04:51:00.318Z,98458.76
2024-01-17T04:53:01.992Z,98456.38
2024-01-17T04:55:03.957Z,98452.04
2024-01-17T04:57:06.637Z,98448.73
2024-01-17T04:59:08.415Z,98450.08
2024-01-17T05:01:10.528Z,98444.21
2024-01-17T05:03:12.523Z,98439.89
2024-01-17T05:05:14.266Z,98441.10
2024-01-17T05:07:16.032Z,98437.02
2024-01-17T05:09:19.599Z,98435.98
2024-01-17T05:11:23.092Z,98435.69
2024-01-17T05:13:24.782Z,98435.97
2024-01-17T05:15:26.473Z,98432.21
2024-01-17T05:17:28.285Z,98432.76
2024-01-17T05:19:30.423Z,98432.52
2024-01-17T05:21:32.756Z,98429.84
2024-01-17T05:23:34.314Z,98421.66
2024-01-17T05:25:35.953Z,98420.98
2024-01-17T05:27:37.482Z,98412.36
2024-01-17T05:29:44.836Z,98417.56
2024-01-17T05:31:46.748Z,98415.63
2024-01-17T05:33:48.611Z,98409.80
2024-01-17T05:35:50.392Z,98411.48
2024-01-17T05:37:52.608Z,98410.73
2024-01-17T05:39:54.176Z,98408.68
2024-01-17T05:41:55.914Z,98406.58
2024-01-17T05:43:58.108Z,98401.85
2024-01-17T05:46:00.196Z,98402.19
2024-01-17T05:48:02.674Z,98396.05
2024-01-17T05:50:10.159Z,98392.23
2024-01-17T05:52:11.704Z,98387.04
2024-01-17T05:54:13.422Z,98382.77
2024-01-17T05:56:15.257Z,98380.31
2024-01-17T05:58:16.911Z,98379.88
2024-01-17T06:00:20.147Z,98375.48
2024-01-17T06:02:21.792Z,98375.44
2024-01-17T06:04:23.511Z,98376.39
2024-01-17T06:06:25.257Z,98369.46
2024-01-17T06:08:26.972Z,98369.77
2024-01-17T06:10:29.894Z,98364.52
2024-01-17T06:12:32.362Z,98357.01
2024-01-17T06:14:33.979Z,98358.60
2024-01-17T06:16:35.612Z,98360.11
2024-01-17T06:18:37.358Z,98354.72
2024-01-17T06:20:39.144Z,98354.86
2024-01-17T06:22:41.496Z,98355.16
2024-01-17T06:24:43.118Z,98356.52
2024-01-17T06:26:45.023Z,98358.20
2024-01-17T06:28:46.613Z,98361.41
2024-01-17T06:30:48.213Z,98360.77
2024-01-17T06:32:49.947Z,98362.73
2024-01-17T06:34:52.817Z,98359.59
2024-01-17T06:36:54.444Z,98360.54
2024-01-17T06:38:56.768Z,98359.65
2024-01-17T06:40:58.471Z,98354.67
2024-01-17T06:43:00.041Z,98355.08
2024-01-17T06:45:01.753Z,98355.36
2024-01-17T06:47:04.999Z,98358.50
2024-01-17T06:49:06.825Z,98353.77
2024-01-17T06:51:08.631Z,98351.07
2024-01-17T06:53:10.235Z,98350.06
2024-01-17T06:55:11.808Z,98341.07
2024-01-17T06:57:13.570Z,98337.05
2024-01-17T06:59:15.367Z,98332.48
2024-01-17T07:01:16.968Z,98330.00
2024-01-17T07:03:18.598Z,98330.55
2024-01-17T07:05:20.182Z,98319.33
2024-01-17T07:07:21.700Z,98320.29
2024-01-17T07:09:23.654Z,98311.16
2024-01-17T07:11:25.309Z,98309.75
2024-01-17T07:13:27.376Z,98305.98
2024-01-17T07:15:29.255Z,98303.84
2024-01-17T07:17:30.998Z,98301.69
2024-01-17T07:19:36.524Z,98297.86
2024-01-17T07:21:43.659Z,98298.23
2024-01-17T07:23:45.761Z,98293.02
2024-01-17T07:25:47.552Z,98290.02
2024-01-17T07:27:49.243Z,98287.14
2024-01-17T07:29:50.953Z,98288.42
2024-01-17T07:31:52.579Z,98284.03
2024-01-17T07:33:54.538Z,98280.23
2024-01-17T07:35:56.247Z,98273.30
2024-01-17T07:37:59.802Z,98270.73
2024-01-17T07:40:01.394Z,98263.65
2024-01-17T07:42:04.630Z,98265.23
2024-01-17T07:44:08.025Z,98265.05
2024-01-17T07:46:09.712Z,98261.77
2024-01-17T07:48:12.276Z,98263.64
2024-01-17T07:50:14.018Z,98264.35
2024-01-17T07:52:15.909Z,98256.09
2024-01-17T07:54:18.969Z,98247.76
2024-01-17T07:56:20.622Z,98246.00
2024-01-17T07:58:22.253Z,98237.16
2024-01-17T08:00:25.172Z,98229.29
2024-01-17T08:02:26.811Z,98227.40
2024-01-17T08:04:28.495Z,98218.98
2024-01-17T08:06:30.511Z,98220.50
2024-01-17T08:08:32.317Z,98219.66
2024-01-17T08:10:34.108Z,98208.17
2024-01-17T08:12:35.918Z,98203.80
2024-01-17T08:14:37.641Z,98214.89
2024-01-17T08:16:39.288Z,98211.77
2024-01-17T08:18:41.496Z,98210.30
2024-01-17T08:20:44.609Z,98207.23
2024-01-17T08:22:46.404Z,98198.28
2024-01-17T08:24:47.971Z,98190.00
2024-01-17T08:26:49.622Z,98188.10
2024-01-17T08:28:51.183Z,98182.36
2024-01-17T08:30:52.902Z,98174.11
2024-01-17T08:32:55.187Z,98173.41
2024-01-17T08:34:57.312Z,98167.43
2024-01-17T08:36:59.817Z,98164.46
2024-01-17T08:39:01.925Z,98165.42
2024-01-17T08:41:03.875Z,98160.56
2024-01-17T08:43:06.146Z,98159.63
2024-01-17T08:45:08.451Z,98153.33
2024-01-17T08:47:10.181Z,98151.45
2024-01-17T08:49:12.125Z,98142.83
2024-01-17T08:51:13.844Z,98135.45
2024-01-17T08:53:16.916Z,98138.27
2024-01-17T08:55:18.466Z,98137.20
2024-01-17T08:57:20.322Z,98131.93
2024-01-17T08:59:21.928Z,98122.80
2024-01-17T09:01:26.003Z,98125.89
2024-01-17T09:03:30.505Z,98119.81
2024-01-17T09:05:32.856Z,98115.13
2024-01-17T09:07:34.702Z,98113.05
2024-01-17T09:09:36.730Z,98108.77
2024-01-17T09:11:39.723Z,98108.23
2024-01-17T09:13:41.223Z,98103.44
2024-01-17T09:15:42.793Z,98099.17
2024-01-17T09:17:44.682Z,98099.45
2024-01-17T09:19:48.019Z,98101.63
2024-01-17T09:21:55.360Z,98097.00
2024-01-17T09:23:57.452Z,98094.02
2024-01-17T09:26:00.847Z,98084.96
2024-01-17T09:28:03.756Z,98084.08
2024-01-17T09:30:06.305Z,98080.52
2024-01-17T09:32:07.915Z,98075.79
2024-01-17T09:34:09.601Z,98066.96
2024-01-17T09:36:13.487Z,98061.48
2024-01-17T09:38:15.665Z,98060.59
2024-01-17T09:40:17.270Z,98053.00
2024-01-17T09:42:22.070Z,98052.83
2024-01-17T09:44:23.761Z,98051.10
2024-01-17T09:46:27.153Z,98044.20
2024-01-17T09:48:29.890Z,98035.92
2024-01-17T09:50:31.687Z,98030.25
2024-01-17T09:52:34.764Z,98022.32
2024-01-17T09:54:42.229Z,98016.35
2024-01-17T09:56:47.344Z,98009.67
2024-01-17T09:58:52.109Z,98008.73
2024-01-17T10:00:56.173Z,98006.83
2024-01-17T10:02:58.406Z,97995.81
2024-01-17T10:05:02.005Z,97986.87
2024-01-17T10:07:03.775Z,97985.29
2024-01-17T10:09:05.931Z,97985.11
2024-01-17T10:11:07.830Z,97975.82
2024-01-17T10:13:09.599Z,97970.95
2024-01-17T10:15:17.990Z,97969.83
2024-01-17T10:17:20.692Z,97963.58
2024-01-17T10:19:26.400Z,97958.52
2024-01-17T10:21:28.418Z,97954.39
2024-01-17T10:23:30.448Z,97949.95
2024-01-17T10:25:42.290Z,97947.70
2024-01-17T10:27:43.931Z,97942.41
2024-01-17T10:29:45.549Z,97942.84
2024-01-17T10:31:47.392Z,97934.57
2024-01-17T10:33:52.119Z,97932.91
2024-01-17T10:35:54.018Z,97925.98
2024-01-17T10:37:56.154Z,97918.06
2024-01-17T10:40:10.918Z,97911.17
2024-01-17T10:42:21.835Z,97910.80
2024-01-17T10:44:24.076Z,97908.63
2024-01-17T10:46:26.807Z,97898.66
2024-01-17T10:48:28.691Z,97892.09
2024-01-17T10:50:31.220Z,97887.13
2024-01-17T10:52:37.170Z,97887.65
2024-01-17T10:54:51.258Z,97881.64
2024-01-17T10:56:55.392Z,97884.14
2024-01-17T10:59:00.131Z,97876.40
2024-01-17T11:01:07.134Z,97863.88
2024-01-17T11:03:10.784Z,97860.52
2024-01-17T11:05:16.441Z,97855.63
2024-01-17T11:07:19.244Z,97847.41
2024-01-17T11:09:26.670Z,97839.80
2024-01-17T11:11:30.032Z,97835.92
2024-01-17T11:13:32.716Z,97825.69
2024-01-17T11:15:37.499Z,97822.44
2024-01-17T11:17:42.038Z,97817.21
2024-01-17T11:19:45.730Z,97813.02
2024-01-17T11:21:48.492Z,97805.09
2024-01-17T11:24:02.170Z,97796.11
2024-01-17T11:26:30.047Z,97795.41
2024-01-17T11:28:48.007Z,97795.39
2024-01-17T11:31:20.651Z,97791.66
2024-01-17T11:33:23.665Z,97783.02
2024-01-17T11:35:41.802Z,97784.88
2024-01-17T11:37:43.504Z,97780.05
2024-01-17T11:39:45.873Z,97774.75
2024-01-17T11:41:50.240Z,97767.72
2024-01-17T11:43:55.681Z,97765.45
2024-01-17T11:45:58.677Z,97765.39
2024-01-17T11:48:13.803Z,97761.52
2024-01-17T11:50:15.709Z,97763.84
2024-01-17T11:52:29.421Z,97750.20
2024-01-17T11:54:30.979Z,97743.11
2024-01-17T11:56:33.327Z,97736.35
2024-01-17T11:58:46.288Z,97731.36
2024-01-17T12:00:51.930Z,97724.95
2024-01-17T12:02:53.616Z,97726.23
2024-01-17T12:04:58.456Z,97721.59
2024-01-17T12:07:00.386Z,97711.70
2024-01-17T12:09:02.101Z,97706.84
2024-01-17T12:11:04.346Z,97701.88
2024-01-17T12:13:06.072Z,97696.88
2024-01-17T12:15:08.763Z,97697.96
2024-01-17T12:17:10.592Z,97696.00
2024-01-17T12:19:14.090Z,97690.64
2024-01-17T12:21:16.316Z,97685.23
2024-01-17T12:23:23.825Z,97679.21
2024-01-17T12:25:25.516Z,97680.42
2024-01-17T12:27:33.527Z,97674.27
2024-01-17T12:29:38.813Z,97667.91
2024-01-17T12:31:40.578Z,97669.08
2024-01-17T12:33:42.166Z,97659.47
2024-01-17T12:35:43.902Z,97652.92
2024-01-17T12:37:45.565Z,97648.92
2024-01-17T12:39:47.076Z,97639.96
2024-01-17T12:41:55.889Z,97635.81
2024-01-17T12:43:57.665Z,97635.28
2024-01-17T12:45:59.924Z,97634.84
2024-01-17T12:48:03.252Z,97636.77
2024-01-17T12:50:05.779Z,97632.07
2024-01-17T12:52:07.646Z,97626.64
2024-01-17T12:54:09.508Z,97619.52
2024-01-17T12:56:13.166Z,97615.23
2024-01-17T12:58:15.880Z,97614.48
2024-01-17T13:00:21.867Z,97602.38
2024-01-17T13:02:24.210Z,97600.04
2024-01-17T13:04:25.997Z,97594.26
2024-01-17T13:06:27.875Z,97586.73
2024-01-17T13:08:30.675Z,97580.76
2024-01-17T13:10:34.513Z,97574.17
2024-01-17T13:12:36.790Z,97569.08
2024-01-17T13:14:41.126Z,97566.98
2024-01-17T13:16:42.963Z,97565.59
2024-01-17T13:18:44.813Z,97565.48
2024-01-17T13:20:46.493Z,97564.95
2024-01-17T13:22:50.727Z,97557.23
2024-01-17T13:24:55.332Z,97551.96
2024-01-17T13:26:58.390Z,97547.60
2024-01-17T13:29:01.148Z,97538.39
2024-01-17T13:31:02.736Z,97530.98
2024-01-17T13:33:08.574Z,97525.96
2024-01-17T13:35:10.311Z,97523.58
2024-01-17T13:37:12.434Z,97520.29
2024-01-17T13:39:14.103Z,97517.02
2024-01-17T13:41:16.867Z,97511.20
2024-01-17T13:43:18.550Z,97510.61
2024-01-17T13:45:21.699Z,97507.11
2024-01-17T13:47:23.837Z,97504.73
2024-01-17T13:49:27.096Z,97502.84
2024-01-17T13:51:32.304Z,97511.11
2024-01-17T13:53:34.365Z,97511.34
2024-01-17T13:55:35.966Z,97504.90
2024-01-17T13:57:38.552Z,97502.30
2024-01-17T13:59:43.334Z,97501.63
2024-01-17T14:01:45.166Z,97500.77
2024-01-17T14:03:48.277Z,97494.82
2024-01-17T14:05:50.597Z,97490.77
2024-01-17T14:07:52.513Z,97485.30
2024-01-17T14:09:54.270Z,97479.67
2024-01-17T14:11:55.882Z,97480.15
2024-01-17T14:13:57.515Z,97475.87
2024-01-17T14:15:59.911Z,97478.35
2024-01-17T14:18:02.098Z,97476.41
2024-01-17T14:20:06.793Z,97470.02
2024-01-17T14:22:09.367Z,97461.85
2024-01-17T14:24:11.231Z,97462.64
2024-01-17T14:26:14.154Z,97461.04
2024-01-17T14:28:15.826Z,97458.85
2024-01-17T14:30:17.750Z,97460.73
2024-01-17T14:32:20.332Z,97455.21
2024-01-17T14:34:23.568Z,97453.40
2024-01-17T14:36:25.472Z,97444.33
2024-01-17T14:38:27.678Z,97443.44
2024-01-17T14:40:29.296Z,97442.30
2024-01-17T14:42:31.354Z,97437.37
2024-01-17T14:44:33.741Z,97438.90
2024-01-17T14:46:35.405Z,97435.49
2024-01-17T14:48:37.234Z,97435.67
2024-01-17T14:50:38.946Z,97432.95
2024-01-17T14:52:41.364Z,97432.86
2024-01-17T14:54:43.733Z,97424.64
2024-01-17T14:56:45.507Z,97421.47
2024-01-17T14:58:47.178Z,97420.70
2024-01-17T15:00:49.034Z,97417.63
2024-01-17T15:02:50.879Z,97412.52
2024-01-17T15:04:52.513Z,97407.05
2024-01-17T15:06:54.158Z,97399.20
2024-01-17T15:08:55.979Z,97399.63
2024-01-17T15:10:57.594Z,97393.25
2024-01-17T15:12:59.257Z,97386.48
2024-01-17T15:15:00.830Z,97381.02
2024-01-17T15:17:02.625Z,97374.80
2024-01-17T15:19:06.469Z,97371.82
2024-01-17T15:21:13.872Z,97370.09
2024-01-17T15:23:15.527Z,97363.93
2024-01-17T15:25:17.773Z,97355.28
2024-01-17T15:27:19.419Z,97350.20
2024-01-17T15:29:21.174Z,97350.09
2024-01-17T15:31:23.077Z,97349.10
2024-01-17T15:33:26.292Z,97350.90
2024-01-17T15:35:28.058Z,97352.80
2024-01-17T15:37:29.821Z,97342.85
2024-01-17T15:39:33.312Z,97341.51
2024-01-17T15:41:36.237Z,97343.85
2024-01-17T15:43:38.857Z,97338.79
2024-01-17T15:45:40.984Z,97333.00
2024-01-17T15:47:42.817Z,97328.20
2024-01-17T15:49:44.688Z,97321.20
2024-01-17T15:51:46.602Z,97316.08
2024-01-17T15:53:48.191Z,97311.23
2024-01-17T15:55:49.899Z,97308.92
2024-01-17T15:57:51.699Z,97312.77
2024-01-17T15:59:53.344Z,97306.36
2024-01-17T16:01:54.991Z,97299.95
2024-01-17T16:03:56.546Z,97295.27
2024-01-17T16:05:58.445Z,97290.06
2024-01-17T16:08:01.515Z,97290.17
2024-01-17T16:10:05.636Z,97291.37
2024-01-17T16:12:07.595Z,97284.46
2024-01-17T16:14:09.182Z,97275.00
2024-01-17T16:16:15.063Z,97273.33
2024-01-17T16:18:16.866Z,97269.61
2024-01-17T16:20:22.949Z,97272.05
2024-01-17T16:22:26.222Z,97269.23
2024-01-17T16:24:28.059Z,97270.95
2024-01-17T16:26:29.739Z,97274.00
2024-01-17T16:28:31.286Z,97266.16
2024-01-17T16:30:32.991Z,97267.41
2024-01-17T16:32:38.778Z,97263.69
2024-01-17T16:34:41.125Z,97261.55
2024-01-17T16:36:42.743Z,97258.40
2024-01-17T16:38:46.190Z,97259.09
2024-01-17T16:40:48.058Z,97263.90
2024-01-17T16:42:49.948Z,97268.86
2024-01-17T16:44:51.695Z,97261.62
2024-01-17T16:46:54.584Z,97260.33
2024-01-17T16:48:56.287Z,97259.16
2024-01-17T16:50:57.902Z,97267.33
2024-01-17T16:52:59.746Z,97262.48
2024-01-17T16:55:01.634Z,97261.90
2024-01-17T16:57:04.767Z,97261.60
2024-01-17T16:59:06.631Z,97256.27
2024-01-17T17:01:09.111Z,97254.63
2024-01-17T17:03:10.883Z,97259.41
2024-01-17T17:05:12.617Z,97253.59
2024-01-17T17:07:14.266Z,97247.98
2024-01-17T17:09:17.188Z,97250.74
2024-01-17T17:11:19.061Z,97248.42
2024-01-17T17:13:20.743Z,97249.38
2024-01-17T17:15:22.511Z,97248.89
2024-01-17T17:17:24.530Z,97251.70
2024-01-17T17:19:26.154Z,97244.34
2024-01-17T17:21:27.879Z,97244.67
2024-01-17T17:23:29.518Z,97237.48
2024-01-17T17:25:31.252Z,97233.85
2024-01-17T17:27:32.857Z,97226.46
2024-01-17T17:29:34.472Z,97220.86
2024-01-17T17:31:36.058Z,97216.66
2024-01-17T17:33:37.814Z,97210.77
2024-01-17T17:35:39.842Z,97211.69
2024-01-17T17:37:41.622Z,97211.48
2024-01-17T17:39:43.300Z,97207.76
2024-01-17T17:41:44.899Z,97203.91
2024-01-17T17:43:46.977Z,97201.44
2024-01-17T17:45:48.614Z,97194.44
2024-01-17T17:47:51.407Z,97187.02
2024-01-17T17:49:53.748Z,97178.05
2024-01-17T17:51:55.273Z,97177.75
2024-01-17T17:53:57.403Z,97170.12
2024-01-17T17:56:00.235Z,97163.02
2024-01-17T17:58:01.740Z,97154.91
2024-01-17T18:00:05.463Z,97153.90
2024-01-17T18:02:07.125Z,97148.00
2024-01-17T18:04:08.921Z,97137.60
2024-01-17T18:06:10.804Z,97129.59
2024-01-17T18:08:12.493Z,97121.16
2024-01-17T18:10:14.807Z,97111.05
2024-01-17T18:12:17.491Z,97107.10
2024-01-17T18:14:19.250Z,97096.93
2024-01-17T18:16:24.984Z,97095.52
2024-01-17T18:18:27.225Z,97094.16
2024-01-17T18:20:28.825Z,97093.98
2024-01-17T18:22:30.454Z,97089.27
2024-01-17T18:24:32.172Z,97090.64
2024-01-17T18:26:33.973Z,97089.73
2024-01-17T18:28:36.130Z,97093.40
2024-01-17T18:30:38.094Z,97087.30
2024-01-17T18:32:39.848Z,97080.25
2024-01-17T18:34:41.501Z,97074.31
2024-01-17T18:36:44.043Z,97068.71
2024-01-17T18:38:45.734Z,97058.86
2024-01-17T18:40:47.947Z,97057.87
2024-01-17T18:42:50.253Z,97055.55
2024-01-17T18:44:51.788Z,97051.66
2024-01-17T18:46:53.392Z,97051.52
2024-01-17T18:48:55.117Z,97051.70
2024-01-17T18:50:57.009Z,97049.04
2024-01-17T18:52:58.729Z,97047.36
2024-01-17T18:55:00.376Z,97050.70
2024-01-17T18:57:02.480Z,97053.86
2024-01-17T18:59:05.101Z,97046.85
2024-01-17T19:01:06.829Z,97043.27
2024-01-17T19:03:10.498Z,97043.41
2024-01-17T19:05:12.365Z,97042.67
2024-01-17T19:07:17.017Z,97043.41
2024-01-17T19:09:20.318Z,97051.13
2024-01-17T19:11:22.508Z,97053.65
2024-01-17T19:13:25.185Z,97050.70
2024-01-17T19:15:30.051Z,97047.93
2024-01-17T19:17:31.989Z,97039.12
2024-01-17T19:19:33.576Z,97032.75
2024-01-17T19:21:35.189Z,97024.55
2024-01-17T19:23:37.855Z,97024.38
2024-01-17T19:25:39.509Z,97011.80
2024-01-17T19:27:41.337Z,97002.22
2024-01-17T19:29:42.968Z,96995.96
2024-01-17T19:31:45.974Z,96997.50
2024-01-17T19:33:47.780Z,96994.20
2024-01-17T19:35:49.547Z,96986.36
2024-01-17T19:37:51.293Z,96987.14
2024-01-17T19:39:52.914Z,96983.27
2024-01-17T19:41:54.621Z,96978.08
2024-01-17T19:43:56.206Z,96978.12
2024-01-17T19:45:57.874Z,96967.66
2024-01-17T19:47:59.498Z,96955.89
2024-01-17T19:50:02.335Z,96945.87
2024-01-17T19:52:04.084Z,96942.34
2024-01-17T19:54:05.742Z,96938.81
2024-01-17T19:56:07.922Z,96938.09
2024-01-17T19:58:10.087Z,96936.55
2024-01-17T20:00:14.365Z,96928.95
2024-01-17T20:02:15.926Z,96933.73
2024-01-17T20:04:19.310Z,96926.29
2024-01-17T20:06:22.964Z,96921.56
2024-01-17T20:08:24.711Z,96916.48
2024-01-17T20:10:26.952Z,96914.83
2024-01-17T20:12:29.149Z,96910.13
2024-01-17T20:14:30.883Z,96907.58
2024-01-17T20:16:33.617Z,96897.25
2024-01-17T20:18:35.490Z,96895.57
2024-01-17T20:20:37.328Z,96885.50
2024-01-17T20:22:38.859Z,96881.33
2024-01-17T20:24:40.476Z,96878.14
2024-01-17T20:26:42.288Z,96862.16
2024-01-17T20:28:43.840Z,96867.45
2024-01-17T20:30:48.208Z,96866.38
2024-01-17T20:32:50.943Z,96861.74
2024-01-17T20:34:52.798Z,96865.88
2024-01-17T20:36:57.617Z,96858.27
2024-01-17T20:38:59.303Z,96860.58
2024-01-17T20:41:00.920Z,96854.94
2024-01-17T20:43:04.683Z,96858.55
2024-01-17T20:45:09.457Z,96851.73
2024-01-17T20:47:11.288Z,96858.17
2024-01-17T20:49:13.015Z,96849.36
2024-01-17T20:51:25.619Z,96832.92
2024-01-17T20:53:27.479Z,96820.09
2024-01-17T20:55:29.013Z,96814.57
2024-01-17T20:57:32.588Z,96820.06
2024-01-17T20:59:35.390Z,96815.00
2024-01-17T21:01:38.731Z,96811.54
2024-01-17T21:03:40.523Z,96805.44
2024-01-17T21:05:43.556Z,96808.98
2024-01-17T21:07:45.422Z,96809.71
2024-01-17T21:09:47.199Z,96804.92
2024-01-17T21:11:49.025Z,96800.90
2024-01-17T21:13:50.915Z,96802.11
2024-01-17T21:15:52.695Z,96798.17
2024-01-17T21:17:54.397Z,96804.09
2024-01-17T21:19:56.688Z,96787.76
2024-01-17T21:21:58.445Z,96778.29
2024-01-17T21:24:00.293Z,96761.63
2024-01-17T21:26:02.316Z,96765.45
2024-01-17T21:28:06.381Z,96764.76
2024-01-17T21:30:08.771Z,96757.09
2024-01-17T21:32:10.312Z,96768.02
2024-01-17T21:34:12.198Z,96760.57
2024-01-17T21:36:24.282Z,96755.29
2024-01-17T21:38:25.948Z,96750.98
2024-01-17T21:40:27.549Z,96731.87
2024-01-17T21:42:29.263Z,96753.45
2024-01-17T21:44:32.391Z,96732.94
2024-01-17T21:46:37.424Z,96725.59
2024-01-17T21:48:41.489Z,96721.91
2024-01-17T21:50:43.099Z,96727.42
2024-01-17T21:52:44.618Z,96725.68
2024-01-17T21:54:46.184Z,96725.02
2024-01-17T21:56:47.989Z,96719.27
2024-01-17T21:58:49.570Z,96712.43
2024-01-17T22:00:51.205Z,96704.83
2024-01-17T22:02:53.067Z,96697.57
2024-01-17T22:04:54.716Z,96697.62
2024-01-17T22:06:57.219Z,96692.39
2024-01-17T22:08:59.862Z,96690.17
2024-01-17T22:11:01.659Z,96678.76
2024-01-17T22:13:03.730Z,96688.19
2024-01-17T22:15:05.900Z,96678.21
2024-01-17T22:17:07.558Z,96677.77
2024-01-17T22:19:09.368Z,96671.43
2024-01-17T22:21:11.184Z,96689.31
2024-01-17T22:23:13.104Z,96685.13
2024-01-17T22:25:14.734Z,96686.22
2024-01-17T22:27:16.377Z,96679.44
2024-01-17T22:29:18.073Z,96672.09
2024-01-17T22:31:25.242Z,96660.70
2024-01-17T22:33:27.049Z,96661.36
2024-01-17T22:35:28.855Z,96652.55
2024-01-17T22:37:30.511Z,96650.50
2024-01-17T22:39:32.243Z,96645.67
2024-01-17T22:41:34.022Z,96633.01
2024-01-17T22:43:35.626Z,96639.20
2024-01-17T22:45:37.237Z,96621.94
2024-01-17T22:47:39.085Z,96612.75
2024-01-17T22:49:40.776Z,96613.36
2024-01-17T22:51:42.630Z,96618.05
2024-01-17T22:53:44.349Z,96615.66
2024-01-17T22:55:46.023Z,96612.40
2024-01-17T22:57:48.658Z,96615.48
2024-01-17T22:59:50.258Z,96616.48
2024-01-17T23:01:52.195Z,96612.95
2024-01-17T23:03:54.079Z,96606.66
2024-01-17T23:05:55.780Z,96605.98
2024-01-17T23:08:05.190Z,96609.37
2024-01-17T23:10:12.937Z,96598.88
2024-01-17T23:12:14.623Z,96598.52
2024-01-17T23:14:17.379Z,96603.90
2024-01-17T23:16:19.219Z,96600.20
2024-01-17T23:18:21.050Z,96603.90
2024-01-17T23:20:22.984Z,96601.46
2024-01-17T23:22:24.818Z,96597.34
2024-01-17T23:24:26.724Z,96592.61
2024-01-17T23:26:28.533Z,96590.75
2024-01-17T23:28:30.267Z,96586.98
2024-01-17T23:30:32.007Z,96591.44
2024-01-17T23:32:34.026Z,96589.90
2024-01-17T23:34:35.852Z,96585.05
2024-01-17T23:36:37.825Z,96575.55
2024-01-17T23:38:43.418Z,96577.77
2024-01-17T23:40:45.132Z,96577.48
2024-01-17T23:42:46.976Z,96574.80
2024-01-17T23:44:48.955Z,96575.31
2024-01-17T23:46:50.690Z,96574.03
2024-01-17T23:48:52.634Z,96572.02
2024-01-17T23:50:54.788Z,96566.17
2024-01-17T23:52:56.843Z,96559.96
2024-01-17T23:54:58.667Z,96560.42
2024-01-17T23:57:01.034Z,96559.55
2024-01-17T23:59:02.845Z,96556.46
